Terminal Aerodrome Forecast
Issued by NWS Duluth, MN

Home | Current Version | Previous Version | Text Only | Print | Product List | Glossary On
Versions: 1 2 3 4 5 6 7 8 9 10 11 12 13 14 15 16 17 18 19 20 21 22 23 24 25 26 27 28 29 30 31 32 33 34 35 36
000
FTUS43 KDLH 170708 AAA
TAFDLH
TAF AMD
KDLH 170708Z 1707/1806 13015KT P6SM SCT020 OVC070 WS020/18035KT
     FM171200 17009G15KT 5SM -SN OVC015
     FM171500 19008KT 2SM -RASN OVC008
     FM172200 25004KT 2SM -SN OVC005
     FM180100 32005KT 4SM BR BKN010
     FM180400 33007KT P6SM BKN035=

USA.gov is the U.S. government's official web portal to all federal, state and local government web resources and services.